Terminal Aerodrome Forecast
Issued by NWS Missoula, MT

Home | Current Version | Previous Version | Text Only | Print | Product List | Glossary On
Versions: 1 2 3 4 5 6 7 8 9 10 11 12 13 14 15 16 17 18
000
FTUS45 KMSO 280520
TAFBTM
TAF
KBTM 280520Z 2806/2906 22010KT P6SM BKN040 OVC060
     FM281600 23010G20KT P6SM BKN060
     FM290100 21012KT P6SM VCSH BKN060=

USA.gov is the U.S. government's official web portal to all federal, state and local government web resources and services.